createdAt,value
2022-09-20T00:02:03.372Z,86.73
2022-09-20T00:04:30.356Z,86.28
2022-09-20T00:06:58.207Z,86.26
2022-09-20T00:09:31.417Z,86.11
2022-09-20T00:11:58.367Z,86.36
2022-09-20T00:14:26.272Z,86.55
2022-09-20T00:16:54.332Z,86.53
2022-09-20T00:19:22.301Z,86.62
2022-09-20T00:21:50.261Z,86.74
2022-09-20T00:24:24.186Z,86.66
2022-09-20T00:26:52.492Z,86.79
2022-09-20T00:29:20.249Z,86.67
2022-09-20T00:31:53.319Z,86.49
2022-09-20T00:37:56.415Z,86.85
2022-09-20T00:43:23.692Z,87.28
2022-09-20T00:45:52.456Z,87.04
2022-09-20T00:48:30.345Z,87.22
2022-09-20T00:51:06.553Z,86.98
2022-09-20T00:53:45.505Z,87.12
2022-09-20T00:56:46.500Z,87.08
2022-09-20T00:59:22.550Z,87.17
2022-09-20T01:01:56.226Z,87.40
2022-09-20T01:04:27.436Z,87.17
2022-09-20T01:10:14.239Z,87.27
2022-09-20T01:13:13.365Z,86.88
2022-09-20T01:15:49.372Z,86.86
2022-09-20T01:21:14.824Z,87.08
2022-09-20T01:24:25.311Z,87.10
2022-09-20T01:27:18.903Z,87.13
2022-09-20T01:30:02.406Z,86.98
2022-09-20T01:32:48.789Z,87.33
2022-09-20T01:35:20.000Z,87.25
2022-09-20T01:38:44.753Z,86.93
2022-09-20T01:41:35.537Z,87.26
2022-09-20T01:44:13.488Z,87.55
2022-09-20T01:46:42.637Z,87.02
2022-09-20T01:49:42.408Z,87.30
2022-09-20T01:53:01.476Z,87.07
2022-09-20T01:56:02.072Z,86.78
2022-09-20T01:59:07.257Z,87.18
2022-09-20T02:01:53.061Z,86.99
2022-09-20T02:04:35.159Z,87.01
2022-09-20T02:07:36.145Z,86.99
2022-09-20T02:10:25.779Z,87.01
2022-09-20T02:13:03.485Z,87.11
2022-09-20T02:15:54.887Z,87.07
2022-09-20T02:18:47.135Z,87.29
2022-09-20T02:21:41.211Z,86.94
2022-09-20T02:24:23.274Z,87.10
2022-09-20T02:27:18.168Z,86.73
2022-09-20T02:30:19.774Z,86.66
2022-09-20T02:33:16.827Z,86.86
2022-09-20T02:35:51.786Z,86.84
2022-09-20T02:38:44.456Z,86.73
2022-09-20T02:41:30.567Z,86.63
2022-09-20T02:44:15.329Z,86.57
2022-09-20T02:46:42.359Z,86.56
2022-09-20T02:49:33.702Z,87.09
2022-09-20T02:52:15.307Z,86.94
2022-09-20T02:55:20.749Z,86.87
2022-09-20T02:58:15.620Z,86.59
2022-09-20T03:01:17.864Z,87.04
2022-09-20T03:04:08.023Z,87.00
2022-09-20T03:06:44.062Z,86.92
2022-09-20T03:09:38.541Z,86.83
2022-09-20T03:12:24.650Z,87.13
2022-09-20T03:15:24.128Z,86.75
2022-09-20T03:18:10.734Z,86.91
2022-09-20T03:21:24.197Z,86.61
2022-09-20T03:24:14.405Z,86.74
2022-09-20T03:27:19.689Z,86.92
2022-09-20T03:30:18.550Z,87.06
2022-09-20T03:33:29.474Z,86.90
2022-09-20T03:35:59.391Z,87.03
2022-09-20T03:38:44.528Z,86.93
2022-09-20T03:41:28.444Z,87.06
2022-09-20T03:43:56.153Z,86.98
2022-09-20T03:46:27.191Z,86.55
2022-09-20T03:49:22.278Z,86.88
2022-09-20T03:52:23.850Z,87.10
2022-09-20T03:55:10.308Z,86.78
2022-09-20T03:57:55.515Z,86.75
2022-09-20T04:00:50.173Z,86.88
2022-09-20T04:03:46.604Z,86.82
2022-09-20T04:06:45.133Z,86.94
2022-09-20T04:09:38.108Z,86.69
2022-09-20T04:12:16.455Z,86.57
2022-09-20T04:15:23.385Z,86.69
2022-09-20T04:18:35.457Z,86.93
2022-09-20T04:21:05.186Z,86.73
2022-09-20T04:24:27.084Z,86.54
2022-09-20T04:27:20.629Z,86.44
2022-09-20T04:30:06.983Z,86.32
2022-09-20T04:32:58.411Z,86.52
2022-09-20T04:36:12.457Z,86.27
2022-09-20T04:38:40.671Z,86.22
2022-09-20T04:41:54.784Z,86.62
2022-09-20T04:44:30.917Z,86.67
2022-09-20T04:50:25.443Z,86.36
2022-09-20T04:53:24.523Z,86.46
2022-09-20T04:56:03.078Z,86.33
2022-09-20T05:01:57.160Z,86.25
2022-09-20T05:05:10.120Z,86.34
2022-09-20T05:08:01.681Z,86.15
2022-09-20T05:10:38.148Z,86.27
2022-09-20T05:13:38.370Z,86.66
2022-09-20T05:16:20.788Z,86.60
2022-09-20T05:19:13.945Z,86.50
2022-09-20T05:22:43.946Z,86.97
2022-09-20T05:25:30.922Z,86.25
2022-09-20T05:28:30.432Z,86.51
2022-09-20T05:31:26.670Z,86.19
2022-09-20T05:34:39.378Z,86.48
2022-09-20T05:40:53.979Z,87.12
2022-09-20T05:43:34.046Z,87.83
2022-09-20T05:46:46.294Z,87.25
2022-09-20T05:49:36.988Z,87.17
2022-09-20T05:52:21.223Z,87.29
2022-09-20T05:55:29.842Z,87.17
2022-09-20T05:58:04.507Z,87.12
2022-09-20T06:01:14.955Z,87.42
2022-09-20T06:03:48.671Z,87.21
2022-09-20T06:07:04.091Z,87.62
2022-09-20T06:09:56.626Z,87.53
2022-09-20T06:12:50.757Z,87.28
2022-09-20T06:15:51.681Z,88.42
2022-09-20T06:18:29.349Z,88.11
2022-09-20T06:21:27.161Z,88.10
2022-09-20T06:26:54.828Z,87.73
2022-09-20T06:29:37.013Z,88.14
2022-09-20T06:32:11.461Z,87.90
2022-09-20T06:34:40.166Z,88.16
2022-09-20T06:38:00.000Z,88.62
2022-09-20T06:41:01.108Z,88.28
2022-09-20T06:43:31.321Z,88.68
2022-09-20T06:45:58.797Z,88.51
2022-09-20T06:48:31.171Z,89.67
2022-09-20T06:54:20.839Z,90.72
2022-09-20T06:56:55.282Z,90.79
2022-09-20T06:59:22.192Z,90.62
2022-09-20T07:01:50.179Z,90.67
2022-09-20T07:04:18.203Z,90.90
2022-09-20T07:06:51.239Z,90.91
2022-09-20T07:09:23.218Z,90.99
2022-09-20T07:11:50.153Z,91.03
2022-09-20T07:14:24.212Z,91.12
2022-09-20T07:16:53.481Z,91.72
2022-09-20T07:19:20.788Z,91.54
2022-09-20T07:21:48.303Z,91.37
2022-09-20T07:24:47.854Z,91.46
2022-09-20T07:27:21.495Z,91.76
2022-09-20T07:29:50.754Z,91.05
2022-09-20T07:32:21.930Z,91.05
2022-09-20T07:34:51.730Z,90.99
2022-09-20T07:37:25.209Z,91.60
2022-09-20T07:39:52.214Z,91.57
2022-09-20T07:42:20.253Z,91.85
2022-09-20T07:44:54.404Z,91.67
2022-09-20T07:47:26.539Z,91.59
2022-09-20T07:49:58.534Z,91.29
2022-09-20T07:52:26.169Z,91.19
2022-09-20T07:54:58.358Z,90.72
2022-09-20T07:57:26.401Z,90.21
2022-09-20T07:59:54.172Z,89.74
2022-09-20T08:02:26.284Z,89.52
2022-09-20T08:04:54.486Z,89.82
2022-09-20T08:07:22.323Z,88.77
2022-09-20T08:15:39.637Z,88.21
2022-09-20T08:18:34.386Z,87.91
2022-09-20T08:21:34.199Z,86.81
2022-09-20T08:24:03.940Z,86.73
2022-09-20T08:26:37.079Z,85.43
2022-09-20T08:29:08.279Z,86.44
2022-09-20T08:41:18.079Z,84.20
2022-09-20T08:43:48.096Z,83.48
2022-09-20T08:46:26.096Z,82.36
2022-09-20T08:48:55.852Z,81.79
2022-09-20T08:51:50.645Z,81.12
2022-09-20T08:54:18.884Z,77.21
2022-09-20T08:56:46.741Z,77.99
2022-09-20T08:59:17.318Z,79.91
2022-09-20T09:01:44.485Z,81.59
2022-09-20T09:04:16.461Z,78.39
2022-09-20T09:06:51.417Z,80.08
2022-09-20T09:09:29.202Z,78.34
2022-09-20T09:17:46.363Z,77.02
2022-09-20T09:20:24.013Z,76.32
2022-09-20T09:23:29.566Z,75.06
2022-09-20T09:25:56.296Z,76.70
2022-09-20T09:28:31.976Z,75.70
2022-09-20T09:31:23.029Z,74.54
2022-09-20T09:33:50.486Z,75.70
2022-09-20T09:36:29.996Z,72.48
2022-09-20T09:39:30.515Z,76.55
2022-09-20T09:42:01.094Z,72.29
2022-09-20T09:45:11.461Z,72.38
2022-09-20T09:47:38.440Z,71.90
2022-09-20T09:50:09.908Z,71.37
2022-09-20T09:53:15.369Z,74.23
2022-09-20T09:55:56.062Z,70.60
2022-09-20T09:58:32.939Z,72.01
2022-09-20T10:01:03.248Z,70.95
2022-09-20T10:04:14.206Z,69.89
2022-09-20T10:07:05.131Z,69.53
2022-09-20T10:09:41.318Z,69.65
2022-09-20T10:12:49.821Z,67.96
2022-09-20T10:15:28.161Z,70.21
2022-09-20T10:18:14.664Z,72.27
2022-09-20T10:21:08.029Z,70.85
2022-09-20T10:24:03.098Z,68.74
2022-09-20T10:26:52.580Z,69.93
2022-09-20T10:29:58.840Z,65.26
2022-09-20T10:33:25.365Z,66.25
2022-09-20T10:36:01.716Z,66.07
2022-09-20T10:38:39.177Z,67.89
2022-09-20T10:42:00.982Z,66.20
2022-09-20T10:44:58.994Z,69.80
2022-09-20T10:48:08.668Z,66.11
2022-09-20T10:50:53.915Z,65.72
2022-09-20T10:53:56.601Z,64.94
2022-09-20T10:56:26.908Z,67.01
2022-09-20T10:59:17.350Z,68.57
2022-09-20T11:01:47.256Z,67.82
2022-09-20T11:08:11.698Z,69.65
2022-09-20T11:10:54.187Z,67.12
2022-09-20T11:13:42.550Z,70.96
2022-09-20T11:16:18.708Z,63.57
2022-09-20T11:18:59.263Z,66.51
2022-09-20T11:21:54.815Z,64.62
2022-09-20T11:25:41.207Z,60.89
2022-09-20T11:28:31.819Z,61.71
2022-09-20T11:31:07.492Z,62.67
2022-09-20T11:33:49.144Z,62.28
2022-09-20T11:39:56.289Z,64.72
2022-09-20T11:42:49.299Z,63.09
2022-09-20T11:45:16.449Z,66.33
2022-09-20T11:47:57.195Z,63.57
2022-09-20T11:50:51.720Z,62.32
2022-09-20T11:53:46.057Z,64.60
2022-09-20T11:56:24.907Z,63.99
2022-09-20T11:58:59.034Z,65.25
2022-09-20T12:01:38.068Z,66.34
2022-09-20T12:04:39.014Z,68.61
2022-09-20T12:10:24.328Z,65.57
2022-09-20T12:12:59.555Z,66.71
2022-09-20T12:15:39.210Z,63.80
2022-09-20T12:18:29.223Z,62.25
2022-09-20T12:20:56.145Z,61.78
2022-09-20T12:23:42.552Z,62.60
2022-09-20T12:32:58.375Z,60.54
2022-09-20T12:35:35.577Z,63.21
2022-09-20T12:38:20.607Z,63.19
2022-09-20T12:41:08.613Z,64.43
2022-09-20T12:43:46.456Z,61.61
2022-09-20T12:46:34.037Z,61.37
2022-09-20T12:49:40.551Z,64.96
2022-09-20T12:52:56.085Z,62.37
2022-09-20T12:55:59.879Z,62.18
2022-09-20T12:58:51.436Z,60.96
2022-09-20T13:01:45.783Z,64.21
2022-09-20T13:04:39.973Z,61.36
2022-09-20T13:07:40.062Z,63.52
2022-09-20T13:10:30.630Z,62.60
2022-09-20T13:13:03.660Z,62.56
2022-09-20T13:15:57.135Z,61.64
2022-09-20T13:18:26.263Z,61.04
2022-09-20T13:23:55.359Z,62.29
2022-09-20T13:29:23.287Z,61.80
2022-09-20T13:31:50.982Z,59.30
2022-09-20T13:34:24.397Z,62.19
2022-09-20T13:37:01.955Z,62.62
2022-09-20T13:39:40.018Z,61.46
2022-09-20T13:42:19.876Z,59.16
2022-09-20T13:47:43.440Z,64.12
2022-09-20T13:50:30.551Z,58.18
2022-09-20T13:53:01.551Z,61.35
2022-09-20T13:55:37.542Z,62.70
2022-09-20T13:58:17.601Z,63.09
2022-09-20T14:00:54.918Z,61.83
2022-09-20T14:03:25.693Z,65.39
2022-09-20T14:09:35.048Z,60.08
2022-09-20T14:12:10.635Z,59.59
2022-09-20T14:14:39.181Z,58.65
2022-09-20T14:17:09.580Z,58.34
2022-09-20T14:19:43.952Z,61.13
2022-09-20T14:25:13.490Z,60.44
2022-09-20T14:27:41.226Z,61.80
2022-09-20T14:30:30.419Z,62.79
2022-09-20T14:32:59.137Z,61.09
2022-09-20T14:35:27.180Z,60.94
2022-09-20T14:38:04.450Z,60.85
2022-09-20T14:40:41.225Z,60.25
2022-09-20T14:43:24.214Z,60.93
2022-09-20T14:46:03.563Z,58.02
2022-09-20T14:48:38.603Z,60.28
2022-09-20T14:51:18.894Z,59.20
2022-09-20T14:54:12.555Z,56.57
2022-09-20T14:56:48.036Z,58.21
2022-09-20T14:59:20.001Z,59.85
2022-09-20T15:01:57.186Z,63.88
2022-09-20T15:04:25.732Z,59.30
2022-09-20T15:07:01.143Z,67.18
2022-09-20T15:09:28.493Z,63.13
2022-09-20T15:12:21.627Z,68.37
2022-09-20T15:14:50.381Z,65.87
2022-09-20T15:17:20.845Z,63.14
2022-09-20T15:19:50.139Z,62.09
2022-09-20T15:22:18.185Z,64.57
2022-09-20T15:24:46.408Z,62.45
2022-09-20T15:27:14.735Z,62.62
2022-09-20T15:29:42.256Z,61.56
2022-09-20T15:35:07.426Z,64.91
2022-09-20T15:37:34.684Z,65.69
2022-09-20T15:40:03.091Z,63.32
2022-09-20T15:42:35.205Z,63.58
2022-09-20T15:45:02.283Z,62.71
2022-09-20T15:47:30.938Z,61.70
2022-09-20T15:49:59.327Z,60.47
2022-09-20T15:55:51.833Z,61.94
2022-09-20T15:58:20.973Z,62.41
2022-09-20T16:03:31.056Z,65.31
2022-09-20T16:06:04.533Z,64.87
2022-09-20T16:08:37.550Z,64.15
2022-09-20T16:11:06.434Z,65.98
2022-09-20T16:13:43.993Z,65.99
2022-09-20T16:16:16.185Z,67.53
2022-09-20T16:19:07.961Z,67.86
2022-09-20T16:21:42.676Z,68.67
2022-09-20T16:24:22.154Z,68.78
2022-09-20T16:27:21.912Z,67.38
2022-09-20T16:29:55.760Z,68.35
2022-09-20T16:32:53.523Z,67.21
2022-09-20T16:35:26.202Z,69.53
2022-09-20T16:37:57.395Z,70.61
2022-09-20T16:40:24.217Z,70.24
2022-09-20T16:42:56.449Z,70.15
2022-09-20T16:45:24.474Z,70.90
2022-09-20T16:48:06.420Z,70.82
2022-09-20T16:50:36.200Z,71.49
2022-09-20T16:53:04.350Z,71.20
2022-09-20T16:55:33.911Z,71.62
2022-09-20T16:58:02.537Z,72.60
2022-09-20T17:00:31.460Z,72.86
2022-09-20T17:02:58.161Z,74.05
2022-09-20T17:08:18.259Z,74.59
2022-09-20T17:10:46.223Z,74.62
2022-09-20T17:13:15.394Z,75.04
2022-09-20T17:15:42.226Z,75.16
2022-09-20T17:18:14.884Z,75.53
2022-09-20T17:21:19.062Z,76.08
2022-09-20T17:24:00.296Z,75.94
2022-09-20T17:26:34.321Z,76.26
2022-09-20T17:29:28.396Z,76.62
2022-09-20T17:32:22.229Z,77.00
2022-09-20T17:34:50.166Z,77.12
2022-09-20T17:37:44.128Z,77.57
2022-09-20T17:40:12.231Z,77.38
2022-09-20T17:42:40.545Z,77.86
2022-09-20T17:48:00.259Z,78.01
2022-09-20T17:50:28.251Z,78.14
2022-09-20T17:55:57.619Z,78.28
2022-09-20T17:58:24.459Z,78.51
2022-09-20T18:00:56.513Z,78.54
2022-09-20T18:03:50.275Z,78.92
2022-09-20T18:06:52.345Z,79.17
2022-09-20T18:09:22.819Z,79.66
2022-09-20T18:17:36.455Z,79.93
2022-09-20T18:20:04.561Z,79.80
2022-09-20T18:22:32.137Z,80.16
2022-09-20T18:25:00.179Z,80.26
2022-09-20T18:27:29.361Z,80.47
2022-09-20T18:29:56.613Z,81.00
2022-09-20T18:32:33.245Z,80.83
2022-09-20T18:35:00.172Z,80.96
2022-09-20T18:40:27.895Z,81.58
2022-09-20T18:43:02.390Z,81.52
2022-09-20T18:45:58.524Z,81.28
2022-09-20T18:48:32.236Z,81.74
2022-09-20T18:51:32.350Z,81.67
2022-09-20T18:54:30.108Z,81.58
2022-09-20T18:57:03.610Z,81.92
2022-09-20T18:59:37.388Z,81.77
2022-09-20T19:02:50.772Z,82.06
2022-09-20T19:05:39.643Z,82.19
2022-09-20T19:08:34.333Z,81.80
2022-09-20T19:11:08.112Z,81.78
2022-09-20T19:13:58.540Z,82.15
2022-09-20T19:16:38.894Z,82.37
2022-09-20T19:22:06.448Z,81.92
2022-09-20T19:24:55.477Z,81.89
2022-09-20T19:27:23.413Z,82.42
2022-09-20T19:30:16.863Z,82.42
2022-09-20T19:32:44.501Z,82.56
2022-09-20T19:38:35.169Z,82.55
2022-09-20T19:44:06.058Z,82.76
2022-09-20T19:47:05.529Z,82.68
2022-09-20T19:49:47.343Z,82.37
2022-09-20T19:52:15.296Z,82.49
2022-09-20T19:55:13.758Z,82.44
2022-09-20T19:57:47.302Z,82.78
2022-09-20T20:00:16.831Z,82.86
2022-09-20T20:02:45.741Z,82.69
2022-09-20T20:05:26.320Z,82.85
2022-09-20T20:08:27.184Z,82.93
2022-09-20T20:11:09.118Z,83.27
2022-09-20T20:14:08.009Z,83.13
2022-09-20T20:17:10.357Z,83.07
2022-09-20T20:20:05.311Z,82.91
2022-09-20T20:22:56.804Z,82.82
2022-09-20T20:25:48.220Z,83.12
2022-09-20T20:28:16.290Z,83.39
2022-09-20T20:30:44.199Z,83.41
2022-09-20T20:33:20.923Z,83.49
2022-09-20T20:35:55.788Z,83.36
2022-09-20T20:38:28.461Z,83.24
2022-09-20T20:41:05.921Z,83.27
2022-09-20T20:43:42.013Z,83.42
2022-09-20T20:46:14.093Z,83.14
2022-09-20T20:48:42.680Z,83.28
2022-09-20T20:51:47.158Z,83.41
2022-09-20T20:54:14.339Z,83.43
2022-09-20T20:56:42.617Z,83.27
2022-09-20T20:59:10.426Z,83.25
2022-09-20T21:01:42.945Z,83.29
2022-09-20T21:04:11.502Z,83.83
2022-09-20T21:06:43.070Z,83.58
2022-09-20T21:09:16.544Z,83.63
2022-09-20T21:11:44.759Z,83.36
2022-09-20T21:14:17.795Z,83.36
2022-09-20T21:16:51.785Z,83.37
2022-09-20T21:19:29.246Z,83.62
2022-09-20T21:21:56.173Z,83.47
2022-09-20T21:24:24.276Z,83.70
2022-09-20T21:26:53.429Z,83.83
2022-09-20T21:29:20.664Z,84.00
2022-09-20T21:32:14.412Z,83.58
2022-09-20T21:37:34.344Z,83.38
2022-09-20T21:42:55.887Z,84.31
2022-09-20T21:45:29.528Z,84.04
2022-09-20T21:47:56.151Z,84.33
2022-09-20T21:50:24.157Z,84.06
2022-09-20T21:52:52.129Z,84.45
2022-09-20T21:55:44.447Z,84.51
2022-09-20T21:58:12.136Z,84.97
2022-09-20T22:00:45.191Z,84.90
2022-09-20T22:03:12.299Z,84.45
2022-09-20T22:06:20.647Z,84.12
2022-09-20T22:08:53.705Z,83.84
2022-09-20T22:11:48.082Z,84.18
2022-09-20T22:14:19.065Z,84.16
2022-09-20T22:16:47.668Z,84.01
2022-09-20T22:19:21.308Z,84.05
2022-09-20T22:21:49.922Z,84.09
2022-09-20T22:24:18.721Z,84.26
2022-09-20T22:26:57.246Z,84.24
2022-09-20T22:29:24.271Z,84.16
2022-09-20T22:31:52.187Z,84.26
2022-09-20T22:34:24.881Z,84.22
2022-09-20T22:37:04.555Z,84.40
2022-09-20T22:39:34.706Z,84.37
2022-09-20T22:42:03.270Z,84.55
2022-09-20T22:44:33.508Z,84.32
2022-09-20T22:47:26.284Z,84.15
2022-09-20T22:49:58.268Z,84.28
2022-09-20T22:52:26.179Z,84.27
2022-09-20T22:54:54.105Z,84.57
2022-09-20T22:57:26.345Z,84.51
2022-09-20T22:59:54.212Z,84.56
2022-09-20T23:02:27.255Z,84.55
2022-09-20T23:04:55.304Z,84.14
2022-09-20T23:07:28.149Z,84.34
2022-09-20T23:10:01.160Z,84.42
2022-09-20T23:12:28.157Z,84.69
2022-09-20T23:15:01.201Z,84.68
2022-09-20T23:17:28.137Z,84.22
2022-09-20T23:19:56.157Z,84.41
2022-09-20T23:22:24.379Z,84.65
2022-09-20T23:24:52.143Z,84.69
2022-09-20T23:27:25.161Z,84.62
2022-09-20T23:29:52.176Z,84.58
2022-09-20T23:35:12.146Z,84.31
2022-09-20T23:38:05.600Z,84.19
2022-09-20T23:40:33.719Z,84.35
2022-09-20T23:43:02.135Z,84.34
2022-09-20T23:45:34.259Z,84.43
2022-09-20T23:48:02.453Z,84.64
2022-09-20T23:50:30.149Z,84.37
2022-09-20T23:53:02.179Z,84.44
2022-09-20T23:55:30.243Z,84.21
2022-09-20T23:58:48.611Z,84.40
